Ripley, Illinois
Current Conditions -  °F | °C
As of 2:15 AM on Saturday 29 Nov 2014 (Local Time) from KPPQ Reporting Station
Clear Clear  
Wind Chill: 36°   Ceiling: Unl
Heat Index: 42°   Visibility: NA
Dew Point: 35°   Wind: 9mph
Humidity: 75%   Direction: 170°S
Pressure: 29.78"   Gusts: NA
Location:  39.9985°N, 90.6925°W
Report Text: KPPQ 290815Z AUTO 17008KT CLR 06/01 A2978 RMK AO2 T00550014 PWINO
Loading
Personal Weather Stations






























Interactive Weather Map New forecast layout! Learn more

10-Day Weather Forecast

Advertisements
Track Severe Weather on mobile